Time;durP1;ratioP1;P1;durP2;ratioP2;P2;SDS_P1;SDS_P2;PMS_P1;PMS_P2;Temp;Humidity;BMP_temperature;BMP_pressure;BME280_temperature;BME280_humidity;BME280_pressure;Samples;Min_cycle;Max_cycle;Signal;HPM_P1;HPM_P2
2022/01/01 00:00:51;;;;;;;30.23;16.17;;;;;;;12.62;79.95;102236.25;5092239;28;20062;-68
2022/01/01 00:03:18;;;;;;;32.30;17.67;;;;;;;12.62;80.18;102235.38;5090447;28;20053;-68
2022/01/01 00:05:45;;;;;;;41.95;19.17;;;;;;;12.63;79.86;102240.66;5088190;28;20045;-69
2022/01/01 00:08:12;;;;;;;35.53;18.30;;;;;;;12.64;79.91;102225.63;5095057;28;20048;-68
2022/01/01 00:10:39;;;;;;;33.50;20.13;;;;;;;12.65;79.95;102223.00;5085165;28;20055;-70
2022/01/01 00:13:14;;;;;;;39.78;21.40;;;;;;;12.65;79.85;102224.75;5083910;28;20112;-68
2022/01/01 00:15:41;;;;;;;42.05;24.52;;;;;;;12.65;79.92;102223.00;5085781;28;20049;-71
2022/01/01 00:18:08;;;;;;;46.00;26.83;;;;;;;12.64;79.83;102226.53;5094955;28;20036;-71
2022/01/01 00:20:34;;;;;;;48.88;27.17;;;;;;;12.63;79.93;102224.78;5094012;28;20041;-70
2022/01/01 00:23:01;;;;;;;48.65;29.48;;;;;;;12.64;80.02;102230.94;5076954;28;20055;-70
2022/01/01 00:25:28;;;;;;;46.00;29.15;;;;;;;12.63;80.03;102232.72;5075385;28;20052;-71
2022/01/01 00:27:54;;;;;;;49.95;31.00;;;;;;;12.63;80.07;102237.13;5095390;28;20517;-72
2022/01/01 00:30:21;;;;;;;57.00;32.40;;;;;;;12.64;79.95;102241.50;5081352;28;20478;-70
2022/01/01 00:32:48;;;;;;;52.85;32.95;;;;;;;12.63;80.03;102234.47;5092716;28;20048;-71
2022/01/01 00:35:15;;;;;;;50.25;33.67;;;;;;;12.62;80.04;102241.53;5076368;28;20040;-70
2022/01/01 00:37:41;;;;;;;53.97;32.15;;;;;;;12.62;80.16;102245.94;5091830;28;20059;-71
2022/01/01 00:40:09;;;;;;;53.30;31.85;;;;;;;12.63;80.11;102242.41;5084656;28;20041;-69
2022/01/01 00:42:35;;;;;;;52.78;33.08;;;;;;;12.64;80.14;102245.03;5087476;28;20507;-71
2022/01/01 00:45:03;;;;;;;49.85;31.05;;;;;;;12.63;80.18;102239.75;5089563;28;20040;-71
2022/01/01 00:47:30;;;;;;;51.08;29.80;;;;;;;12.61;79.89;102233.66;5080048;28;20518;-69
2022/01/01 00:49:57;;;;;;;49.53;30.95;;;;;;;12.63;80.12;102247.69;5090469;28;20147;-69
2022/01/01 00:52:23;;;;;;;48.28;30.83;;;;;;;12.61;80.31;102252.16;5093090;28;20118;-70
2022/01/01 00:54:50;;;;;;;47.25;30.23;;;;;;;12.60;80.27;102240.69;5078863;28;20045;-69
2022/01/01 00:57:17;;;;;;;45.95;30.83;;;;;;;12.61;80.34;102241.59;5078775;28;20509;-70
2022/01/01 00:59:43;;;;;;;54.22;32.13;;;;;;;12.59;80.29;102238.94;5084029;28;20568;-69
2022/01/01 01:02:10;;;;;;;56.78;32.53;;;;;;;12.60;80.36;102238.03;5082054;28;20045;-70
2022/01/01 01:04:37;;;;;;;53.22;31.17;;;;;;;12.59;80.25;102238.94;5079223;28;20041;-70
2022/01/01 01:07:04;;;;;;;51.83;32.53;;;;;;;12.60;80.37;102245.97;5081527;28;20055;-69
2022/01/01 01:09:30;;;;;;;54.33;32.63;;;;;;;12.60;80.29;102240.69;5091716;28;20057;-70
2022/01/01 01:11:57;;;;;;;51.85;31.55;;;;;;;12.63;80.38;102247.69;5091032;28;20047;-72
2022/01/01 01:14:26;;;;;;;53.25;31.15;;;;;;;12.65;80.36;102256.50;5094587;28;20044;-70
2022/01/01 01:16:55;;;;;;;49.88;30.95;;;;;;;12.66;80.33;102255.59;5079250;28;20053;-72
2022/01/01 01:19:21;;;;;;;50.70;29.88;;;;;;;12.67;80.29;102254.69;5087215;28;20409;-71
2022/01/01 01:21:49;;;;;;;55.83;30.52;;;;;;;12.68;80.39;102256.44;5099154;28;20044;-72
2022/01/01 01:24:17;;;;;;;47.60;28.52;;;;;;;12.69;80.20;102256.41;5099063;28;20053;-72
2022/01/01 01:26:48;;;;;;;46.65;26.67;;;;;;;12.71;80.02;102262.56;5098815;28;20055;-71
2022/01/01 01:29:17;;;;;;;50.10;25.10;;;;;;;12.71;80.18;102264.34;5098790;28;20075;-70
2022/01/01 01:31:45;;;;;;;43.00;25.23;;;;;;;12.72;80.03;102260.78;5088057;28;20045;-70
2022/01/01 01:34:12;;;;;;;44.05;24.30;;;;;;;12.71;80.13;102267.00;5090532;28;20043;-69
2022/01/01 01:36:41;;;;;;;43.15;22.73;;;;;;;12.71;80.17;102269.63;5093706;28;20102;-69
2022/01/01 01:39:08;;;;;;;38.63;22.60;;;;;;;12.72;80.03;102266.06;5096701;28;20069;-70
2022/01/01 01:41:35;;;;;;;36.60;18.90;;;;;;;12.73;79.98;102267.81;5078796;28;20045;-69
2022/01/01 01:44:22;;;;;;;35.17;17.98;;;;;;;12.74;80.18;102280.16;5097810;28;20589;-69
2022/01/01 01:46:49;;;;;;;38.95;18.98;;;;;;;12.72;80.23;102280.19;5097481;28;20154;-71
2022/01/01 01:49:16;;;;;;;37.28;17.05;;;;;;;12.74;79.95;102274.84;5096491;28;20051;-70
2022/01/01 01:51:43;;;;;;;33.20;17.08;;;;;;;12.74;79.97;102273.09;5088347;28;20129;-70
2022/01/01 01:54:13;;;;;;;34.47;16.15;;;;;;;12.75;80.07;102271.31;5090062;28;20136;-71
2022/01/01 01:56:40;;;;;;;28.55;15.52;;;;;;;12.76;80.04;102285.44;5095303;28;20044;-72
2022/01/01 01:59:06;;;;;;;30.38;14.75;;;;;;;12.75;79.90;102287.19;5094566;28;20472;-70
2022/01/01 02:01:33;;;;;;;32.95;14.18;;;;;;;12.74;79.75;102291.63;5085457;28;20048;-71
2022/01/01 02:04:00;;;;;;;32.65;14.95;;;;;;;12.74;79.81;102293.38;5089000;28;20653;-71
2022/01/01 02:06:27;;;;;;;25.50;13.70;;;;;;;12.77;79.82;102290.69;5095612;28;20048;-70
2022/01/01 02:08:54;;;;;;;34.97;13.98;;;;;;;12.76;79.73;102283.66;5097913;28;20045;-70
2022/01/01 02:11:23;;;;;;;32.67;13.00;;;;;;;12.74;79.68;102281.03;5097543;28;20048;-71
2022/01/01 02:18:52;;;;;;;24.85;12.05;;;;;;;12.73;79.85;102292.53;5089006;28;20117;-70
2022/01/01 02:21:21;;;;;;;25.92;11.63;;;;;;;12.73;79.73;102286.34;5095005;28;20421;-71
2022/01/01 02:23:57;;;;;;;28.48;11.90;;;;;;;12.73;79.86;102300.47;5096953;28;20040;-70
2022/01/01 02:26:34;;;;;;;24.70;11.40;;;;;;;12.73;79.71;102299.56;5096517;28;20044;-67
2022/01/01 02:29:03;;;;;;;24.33;10.90;;;;;;;12.72;79.73;102296.06;5086720;28;20517;-70
2022/01/01 02:31:33;;;;;;;29.55;11.32;;;;;;;12.71;79.69;102293.44;5083066;28;20487;-70
2022/01/01 02:34:06;;;;;;;25.00;10.55;;;;;;;12.72;79.88;102298.72;5095838;28;20088;-67
2022/01/01 02:36:38;;;;;;;26.40;10.63;;;;;;;12.71;79.78;102291.66;5081335;28;20099;-68
2022/01/01 02:39:19;;;;;;;20.58;10.20;;;;;;;12.72;79.72;102279.28;5096518;28;20089;-68
2022/01/01 02:41:48;;;;;;;19.70;9.82;;;;;;;12.72;79.93;102280.19;5087389;28;20047;-68
2022/01/01 02:44:15;;;;;;;25.88;10.38;;;;;;;12.72;79.75;102277.53;5088609;28;20052;-68
2022/01/01 02:46:42;;;;;;;24.45;10.90;;;;;;;12.71;79.86;102278.44;5084720;28;20049;-69
2022/01/01 02:49:09;;;;;;;28.00;10.15;;;;;;;12.71;79.87;102281.06;5089303;28;20045;-68
2022/01/01 02:51:36;;;;;;;24.05;9.73;;;;;;;12.69;79.93;102274.94;5082545;28;20056;-73
2022/01/01 02:54:02;;;;;;;26.40;10.40;;;;;;;12.71;80.07;102275.78;5083888;28;20041;-72
2022/01/01 02:56:29;;;;;;;27.42;9.75;;;;;;;12.72;80.37;102282.81;5082589;28;20041;-72
2022/01/01 02:58:56;;;;;;;22.50;9.68;;;;;;;12.72;79.91;102290.78;5076754;28;20497;-71
2022/01/01 03:01:23;;;;;;;26.83;10.18;;;;;;;12.73;80.09;102283.69;5083551;28;20059;-70
2022/01/01 03:03:49;;;;;;;23.13;10.13;;;;;;;12.72;80.37;102282.81;5094814;28;20044;-70
2022/01/01 03:06:20;;;;;;;23.38;10.50;;;;;;;12.74;80.07;102291.63;5088321;28;20049;-70
2022/01/01 03:08:54;;;;;;;23.80;10.98;;;;;;;12.76;80.04;102290.72;5085510;28;20053;-72
2022/01/01 03:11:23;;;;;;;24.85;11.35;;;;;;;12.74;80.05;102283.69;5087249;28;20054;-70
2022/01/01 03:13:50;;;;;;;24.10;12.30;;;;;;;12.76;80.19;102280.16;5086921;28;20059;-71
2022/01/01 03:16:16;;;;;;;25.50;11.75;;;;;;;12.77;80.32;102272.16;5091199;28;20048;-70
2022/01/01 03:18:43;;;;;;;25.92;11.15;;;;;;;12.79;80.30;102264.19;5086162;28;20135;-70
2022/01/01 03:21:10;;;;;;;23.65;10.93;;;;;;;12.80;80.17;102258.00;5080640;28;20051;-70
2022/01/01 03:23:37;;;;;;;26.70;10.27;;;;;;;12.80;80.06;102253.59;5083154;28;20069;-73
2022/01/01 03:26:04;;;;;;;21.77;9.45;;;;;;;12.81;80.12;102257.09;5096550;28;20036;-73
2022/01/01 03:28:31;;;;;;;18.20;8.55;;;;;;;12.79;79.98;102251.84;5097449;28;20052;-74
2022/01/01 03:30:58;;;;;;;24.23;9.63;;;;;;;12.80;80.10;102258.91;5086319;28;20128;-72
2022/01/01 03:33:25;;;;;;;20.65;8.00;;;;;;;12.81;80.15;102260.66;5097234;28;20487;-71
2022/01/01 03:35:53;;;;;;;20.77;7.88;;;;;;;12.81;79.99;102258.00;5094892;28;20055;-73
2022/01/01 03:38:20;;;;;;;18.27;6.95;;;;;;;12.82;80.02;102256.22;5076779;28;20053;-73
2022/01/01 03:40:47;;;;;;;20.92;8.18;;;;;;;12.80;79.90;102256.25;5079214;28;20494;-74
2022/01/01 03:43:13;;;;;;;19.20;8.23;;;;;;;12.82;80.07;102261.50;5097498;28;20045;-72
2022/01/01 03:45:41;;;;;;;23.77;8.55;;;;;;;12.82;80.01;102262.38;5096814;28;20052;-74
2022/01/01 03:48:08;;;;;;;21.23;7.93;;;;;;;12.81;79.87;102260.66;5096531;28;20118;-69
2022/01/01 03:50:34;;;;;;;18.52;8.18;;;;;;;12.80;80.04;102253.59;5094696;28;20098;-69
2022/01/01 03:53:01;;;;;;;23.33;8.60;;;;;;;12.81;80.00;102258.00;5092995;28;20052;-69
2022/01/01 03:55:28;;;;;;;19.35;7.78;;;;;;;12.80;79.96;102245.66;5093087;28;20074;-69
2022/01/01 03:57:55;;;;;;;21.48;8.30;;;;;;;12.82;79.98;102250.91;5092390;28;20110;-69
2022/01/01 04:00:22;;;;;;;20.88;7.85;;;;;;;12.81;80.02;102242.13;5081966;28;20106;-70
2022/01/01 04:02:49;;;;;;;17.55;7.43;;;;;;;12.82;80.01;102243.84;5080166;28;20084;-69
2022/01/01 04:05:16;;;;;;;15.02;7.35;;;;;;;12.83;79.99;102244.72;5082473;28;20036;-69
2022/01/01 04:07:43;;;;;;;18.05;7.85;;;;;;;12.82;80.06;102241.19;5091291;28;20114;-70
2022/01/01 04:10:10;;;;;;;20.02;7.88;;;;;;;12.84;80.00;102241.19;5085629;28;20140;-70
2022/01/01 04:12:37;;;;;;;20.05;6.82;;;;;;;12.85;80.01;102245.59;5077690;28;20133;-70
2022/01/01 04:15:05;;;;;;;21.48;7.85;;;;;;;12.84;80.07;102243.84;5076884;28;20055;-69
2022/01/01 04:17:36;;;;;;;18.45;7.45;;;;;;;12.84;79.72;102243.84;5091588;28;20045;-70
2022/01/01 04:20:05;;;;;;;16.85;7.40;;;;;;;12.84;79.94;102233.25;5086769;28;20053;-70
2022/01/01 04:22:32;;;;;;;19.23;7.95;;;;;;;12.84;79.84;102233.25;5076847;28;20187;-70
2022/01/01 04:24:59;;;;;;;18.58;7.75;;;;;;;12.85;79.94;102233.22;5104839;28;20048;-71
2022/01/01 04:27:26;;;;;;;16.42;8.15;;;;;;;12.85;79.91;102237.66;5094382;28;20048;-68
2022/01/01 04:29:52;;;;;;;20.27;8.85;;;;;;;12.83;79.83;102237.66;5083956;28;20041;-70
2022/01/01 04:32:19;;;;;;;18.98;8.27;;;;;;;12.85;79.82;102249.09;5093748;28;20044;-71
2022/01/01 04:34:46;;;;;;;21.05;8.23;;;;;;;12.84;79.82;102249.13;5090560;28;20506;-71
2022/01/01 04:37:15;;;;;;;18.67;7.72;;;;;;;12.83;79.68;102248.22;5079440;28;20045;-71
2022/01/01 04:39:43;;;;;;;21.13;8.07;;;;;;;12.82;79.87;102249.13;5080542;28;20513;-72
2022/01/01 04:42:10;;;;;;;17.08;7.53;;;;;;;12.81;79.79;102250.06;5095144;28;20053;-72
2022/01/01 04:44:36;;;;;;;18.70;7.32;;;;;;;12.83;79.75;102250.03;5089425;28;20041;-72
2022/01/01 04:47:03;;;;;;;15.65;7.20;;;;;;;12.83;79.85;102247.38;5095729;28;20045;-72
2022/01/01 04:49:30;;;;;;;16.65;7.32;;;;;;;12.82;80.22;102248.28;5087616;28;20489;-70
2022/01/01 04:51:57;;;;;;;16.88;7.20;;;;;;;12.83;79.85;102255.31;5085135;28;20061;-71
2022/01/01 04:54:24;;;;;;;19.33;7.53;;;;;;;12.82;79.69;102256.22;5083626;28;20044;-70
2022/01/01 04:56:51;;;;;;;16.17;7.32;;;;;;;12.81;79.75;102259.75;5084485;28;20052;-71
2022/01/01 04:59:18;;;;;;;14.80;7.22;;;;;;;12.80;79.81;102250.97;5078523;28;20044;-70
2022/01/01 05:01:45;;;;;;;16.77;7.55;;;;;;;12.80;79.88;102253.59;5090762;28;20045;-70
2022/01/01 05:04:13;;;;;;;16.25;6.63;;;;;;;12.82;79.80;102254.44;5082781;28;20123;-70
2022/01/01 05:06:41;;;;;;;15.70;7.25;;;;;;;12.81;79.72;102250.06;5091528;28;20055;-69
2022/01/01 05:09:09;;;;;;;15.93;6.72;;;;;;;12.81;79.77;102249.16;5087138;28;20053;-71
2022/01/01 05:11:36;;;;;;;15.95;7.20;;;;;;;12.80;79.96;102253.59;5077416;28;20484;-71
2022/01/01 05:14:03;;;;;;;16.92;7.10;;;;;;;12.80;79.80;102255.34;5077834;28;20048;-70
2022/01/01 05:16:29;;;;;;;17.25;7.43;;;;;;;12.81;79.67;102257.09;5095273;28;20594;-69
2022/01/01 05:18:56;;;;;;;15.57;6.38;;;;;;;12.81;79.72;102257.09;5094268;28;20399;-71
2022/01/01 05:21:23;;;;;;;17.75;7.28;;;;;;;12.80;79.82;102250.06;5093051;28;20044;-71
2022/01/01 05:23:50;;;;;;;12.85;7.00;;;;;;;12.80;79.74;102252.72;5087200;28;20483;-70
2022/01/01 05:26:17;;;;;;;17.98;6.95;;;;;;;12.80;79.66;102258.00;5089950;28;20047;-69
2022/01/01 05:28:44;;;;;;;15.80;6.53;;;;;;;12.80;79.78;102258.00;5083484;28;20128;-69
2022/01/01 05:31:11;;;;;;;14.15;7.20;;;;;;;12.79;79.71;102262.44;5088461;28;20084;-70
2022/01/01 05:33:38;;;;;;;17.20;6.63;;;;;;;12.78;79.64;102260.69;5082098;28;20053;-68
2022/01/01 05:36:05;;;;;;;15.07;6.75;;;;;;;12.78;79.78;102265.09;5082474;28;20045;-69
2022/01/01 05:38:32;;;;;;;15.25;6.45;;;;;;;12.77;79.59;102263.38;5084254;28;20457;-69
2022/01/01 05:40:59;;;;;;;15.32;6.97;;;;;;;12.78;79.72;102260.69;5092544;28;20044;-70
2022/01/01 05:43:25;;;;;;;16.10;6.57;;;;;;;12.77;79.65;102263.38;5092912;28;20048;-70
2022/01/01 05:45:52;;;;;;;15.27;7.07;;;;;;;12.77;79.57;102266.03;5075137;28;20411;-70
2022/01/01 05:48:19;;;;;;;17.27;7.28;;;;;;;12.76;79.58;102261.63;5079540;28;20547;-70
2022/01/01 05:50:46;;;;;;;12.75;6.95;;;;;;;12.76;79.56;102266.91;5090445;28;20048;-69
2022/01/01 05:53:12;;;;;;;14.50;6.47;;;;;;;12.76;79.49;102264.28;5090009;28;20064;-70
2022/01/01 05:55:39;;;;;;;16.95;7.15;;;;;;;12.74;79.69;102262.53;5090775;28;20474;-69
2022/01/01 05:58:06;;;;;;;14.60;6.40;;;;;;;12.75;79.68;102268.66;5093623;28;20047;-70
2022/01/01 06:00:34;;;;;;;14.02;6.10;;;;;;;12.76;79.36;102261.63;5095020;28;20048;-71
2022/01/01 06:03:01;;;;;;;13.10;6.10;;;;;;;12.73;79.51;102268.69;5096284;28;20509;-70
2022/01/01 06:05:30;;;;;;;17.05;6.50;;;;;;;12.71;79.51;102262.56;5094340;28;20044;-71
2022/01/01 06:07:59;;;;;;;13.23;6.68;;;;;;;12.69;79.43;102274.06;5086280;28;20538;-70
2022/01/01 06:10:28;;;;;;;18.38;6.15;;;;;;;12.70;79.44;102262.59;5084390;28;20119;-70
2022/01/01 06:12:56;;;;;;;13.93;6.25;;;;;;;12.69;79.55;102264.34;5097369;28;20041;-69
2022/01/01 06:15:23;;;;;;;12.55;5.43;;;;;;;12.69;79.45;102252.91;5095599;28;20123;-69
2022/01/01 06:17:50;;;;;;;14.52;6.22;;;;;;;12.69;79.38;102258.19;5084973;28;20496;-70
2022/01/01 06:20:17;;;;;;;15.35;6.22;;;;;;;12.68;79.67;102256.44;5096630;28;20063;-69
2022/01/01 06:23:04;;;;;;;16.35;8.95;;;;;;;12.69;79.42;102253.75;5089973;28;20043;-70
2022/01/01 06:25:32;;;;;;;10.63;6.10;;;;;;;12.68;79.34;102259.09;5097610;28;20048;-70
2022/01/01 06:27:59;;;;;;;12.40;6.45;;;;;;;12.67;79.16;102255.56;5091357;28;20048;-68
2022/01/01 06:30:32;;;;;;;19.63;7.13;;;;;;;12.68;79.37;102256.44;5096549;28;20064;-69
2022/01/01 06:33:17;;;;;;;12.25;6.50;;;;;;;12.66;79.28;102251.19;5088526;28;20391;-74
2022/01/01 06:35:45;;;;;;;17.33;7.22;;;;;;;12.66;79.17;102261.78;5093042;28;20503;-73
2022/01/01 06:38:13;;;;;;;16.02;7.32;;;;;;;12.65;79.28;102256.50;5082320;28;20502;-70
2022/01/01 06:40:42;;;;;;;13.50;7.03;;;;;;;12.62;79.20;102251.25;5079644;28;20523;-70
2022/01/01 06:43:13;;;;;;;14.93;7.22;;;;;;;12.60;79.32;102255.72;5077037;28;20053;-70
2022/01/01 06:45:41;;;;;;;12.55;7.10;;;;;;;12.58;79.29;102267.19;5089628;28;20048;-70
2022/01/01 06:48:07;;;;;;;15.70;7.20;;;;;;;12.56;79.49;102266.31;5097323;28;20047;-70
2022/01/01 06:50:37;;;;;;;14.65;7.35;;;;;;;12.55;79.44;102267.22;5085374;28;20491;-71
2022/01/01 06:53:09;;;;;;;12.43;7.30;;;;;;;12.56;79.42;102278.69;5085947;28;20087;-71
2022/01/01 06:55:36;;;;;;;17.77;7.38;;;;;;;12.54;79.37;102275.19;5083642;28;20515;-68
2022/01/01 06:58:03;;;;;;;15.23;7.45;;;;;;;12.56;79.46;102268.97;5086536;28;20072;-68
2022/01/01 07:00:31;;;;;;;15.70;7.28;;;;;;;12.55;79.47;102272.50;5085057;28;20107;-68
2022/01/01 07:02:58;;;;;;;17.45;7.40;;;;;;;12.56;79.35;102281.34;5083317;28;20536;-69
2022/01/01 07:05:25;;;;;;;12.55;6.55;;;;;;;12.54;79.32;102280.47;5082640;28;20073;-67
2022/01/01 07:07:52;;;;;;;11.90;6.68;;;;;;;12.54;79.30;102291.06;5079511;28;20044;-67
2022/01/01 07:10:18;;;;;;;11.80;7.00;;;;;;;12.52;79.33;102284.91;5083218;28;20056;-67
2022/01/01 07:12:45;;;;;;;17.83;7.45;;;;;;;12.50;79.10;102286.72;5087920;28;20049;-69
2022/01/01 07:15:13;;;;;;;17.65;7.20;;;;;;;12.49;79.16;102284.94;5093572;28;20507;-69
2022/01/01 07:17:40;;;;;;;15.98;6.40;;;;;;;12.41;79.34;102288.59;5095689;28;20063;-68
2022/01/01 07:20:08;;;;;;;14.73;6.82;;;;;;;12.33;79.13;102294.88;5093069;28;20048;-66
2022/01/01 07:22:41;;;;;;;15.00;6.60;;;;;;;12.24;79.44;102296.78;5081465;28;20040;-65
2022/01/01 07:25:10;;;;;;;13.45;6.45;;;;;;;12.15;79.57;102288.97;5083656;28;20156;-65
2022/01/01 07:27:38;;;;;;;14.38;6.32;;;;;;;12.08;79.51;102296.09;5089390;28;20074;-66
2022/01/01 07:30:06;;;;;;;12.48;5.95;;;;;;;12.01;79.70;102310.31;5087412;28;20084;-68
2022/01/01 07:32:42;;;;;;;12.68;5.93;;;;;;;11.98;79.80;102322.69;5084623;28;20045;-67
2022/01/01 07:35:11;;;;;;;12.77;5.88;;;;;;;11.92;79.58;102316.53;5081098;28;20045;-67
2022/01/01 07:37:39;;;;;;;9.65;5.47;;;;;;;11.89;79.84;102313.06;5088728;28;20045;-68
2022/01/01 07:40:12;;;;;;;12.13;5.55;;;;;;;11.85;79.69;102308.72;5082409;28;20057;-65
2022/01/01 07:42:40;;;;;;;12.93;5.43;;;;;;;11.83;79.77;102311.38;5079781;28;20043;-66
2022/01/01 07:45:08;;;;;;;11.25;5.35;;;;;;;11.83;79.79;102306.09;5089943;28;20051;-67
2022/01/01 07:47:36;;;;;;;12.15;6.07;;;;;;;11.85;79.78;102306.09;5094114;28;20091;-70
2022/01/01 07:50:05;;;;;;;11.82;5.47;;;;;;;11.83;79.79;102314.00;5091643;28;20060;-67
2022/01/01 07:52:32;;;;;;;13.00;5.50;;;;;;;11.82;79.85;102304.34;5089321;28;20502;-65
2022/01/01 07:55:00;;;;;;;12.82;5.07;;;;;;;11.83;79.70;102316.66;5093353;28;20042;-70
2022/01/01 07:57:29;;;;;;;12.40;5.22;;;;;;;11.86;79.88;102308.69;5080947;28;20545;-65
2022/01/01 07:59:56;;;;;;;14.07;5.38;;;;;;;11.92;79.75;102313.91;5094023;28;20182;-67
2022/01/01 08:02:24;;;;;;;12.00;4.90;;;;;;;11.99;79.75;102319.16;5090496;28;20048;-69
2022/01/01 08:04:51;;;;;;;13.80;5.00;;;;;;;12.05;79.46;102311.13;5091135;28;20506;-65
2022/01/01 08:07:18;;;;;;;12.40;5.00;;;;;;;12.09;79.51;102319.00;5079933;28;20041;-69
2022/01/01 08:10:07;;;;;;;15.13;4.55;;;;;;;12.15;79.37;102331.28;5078710;28;20057;-67
2022/01/01 08:12:34;;;;;;;14.55;4.50;;;;;;;12.19;79.24;102325.06;5091743;28;20052;-68
2022/01/01 08:15:02;;;;;;;14.05;4.35;;;;;;;12.22;78.97;102329.44;5089191;28;20041;-67
2022/01/01 08:17:29;;;;;;;12.90;4.60;;;;;;;12.26;79.08;102344.34;5087498;28;20434;-68
2022/01/01 08:19:57;;;;;;;12.55;4.30;;;;;;;12.31;78.81;102342.50;5083801;28;20044;-69
2022/01/01 08:22:24;;;;;;;11.65;4.35;;;;;;;12.38;78.71;102336.25;5094122;28;20041;-68
2022/01/01 08:24:52;;;;;;;14.77;4.65;;;;;;;12.44;78.52;102335.28;5092719;28;20526;-67
2022/01/01 08:27:19;;;;;;;10.52;4.05;;;;;;;12.51;78.38;102341.34;5093004;28;20051;-69
2022/01/01 08:29:45;;;;;;;14.10;4.22;;;;;;;12.57;78.32;102328.03;5093825;28;20044;-69
2022/01/01 08:32:12;;;;;;;12.02;3.70;;;;;;;12.63;78.07;102324.41;5089565;28;20120;-70
2022/01/01 08:34:39;;;;;;;11.88;4.00;;;;;;;12.69;78.01;102314.63;5074231;28;20475;-68
2022/01/01 08:37:05;;;;;;;9.82;4.15;;;;;;;12.77;77.73;102314.50;5093670;28;20155;-67
2022/01/01 08:39:32;;;;;;;11.93;3.60;;;;;;;12.81;77.34;102305.63;5093472;28;20047;-67
2022/01/01 08:41:59;;;;;;;9.00;3.90;;;;;;;12.85;77.25;102309.09;5093499;28;20075;-67
2022/01/01 08:44:26;;;;;;;11.48;3.63;;;;;;;12.89;76.95;102302.84;5083991;28;20491;-66
2022/01/01 08:46:56;;;;;;;9.15;3.20;;;;;;;12.93;77.09;102311.59;5081247;28;20048;-69
2022/01/01 08:49:23;;;;;;;9.25;3.38;;;;;;;12.99;76.59;102306.22;5092111;28;20544;-67
2022/01/01 08:51:50;;;;;;;8.77;3.17;;;;;;;13.04;76.42;102312.28;5092059;28;20057;-69
2022/01/01 08:54:16;;;;;;;6.88;3.38;;;;;;;13.09;76.44;102306.91;5089751;28;20068;-67
2022/01/01 08:56:43;;;;;;;11.02;3.50;;;;;;;13.13;76.11;102309.47;5088337;28;20493;-70
2022/01/01 08:59:10;;;;;;;9.32;3.90;;;;;;;13.18;75.90;102312.94;5080241;28;20036;-69
2022/01/01 09:01:37;;;;;;;10.05;3.72;;;;;;;13.23;75.76;102320.78;5091029;28;20048;-71
2022/01/01 09:04:05;;;;;;;11.75;3.67;;;;;;;13.24;75.56;102322.53;5091775;28;20080;-69
2022/01/01 09:06:32;;;;;;;9.57;3.20;;;;;;;13.27;75.71;102329.56;5092022;28;20384;-69
2022/01/01 09:08:59;;;;;;;9.10;3.50;;;;;;;13.31;75.57;102325.97;5091243;28;20135;-70
2022/01/01 09:11:26;;;;;;;8.82;3.58;;;;;;;13.33;75.47;102322.38;5090794;28;20144;-71
2022/01/01 09:13:53;;;;;;;6.25;3.30;;;;;;;13.36;75.10;102330.28;5088790;28;20046;-69
2022/01/01 09:16:22;;;;;;;9.10;3.65;;;;;;;13.41;74.95;102324.03;5089312;28;20045;-70
2022/01/01 09:18:49;;;;;;;9.43;3.63;;;;;;;13.42;75.03;102324.03;5089108;28;20040;-71
2022/01/01 09:21:17;;;;;;;9.02;3.45;;;;;;;13.45;74.78;102321.28;5090438;27;20056;-69
2022/01/01 09:23:44;;;;;;;7.22;3.22;;;;;;;13.46;74.56;102319.53;5084904;28;20120;-66
2022/01/01 09:26:11;;;;;;;9.95;3.70;;;;;;;13.48;74.54;102329.19;5079637;28;20439;-67
2022/01/01 09:28:38;;;;;;;7.95;3.20;;;;;;;13.51;74.64;102325.59;5088510;28;20140;-69
2022/01/01 09:31:06;;;;;;;10.05;3.30;;;;;;;13.54;74.56;102322.03;5096392;28;20056;-71
2022/01/01 09:33:33;;;;;;;8.90;3.60;;;;;;;13.58;74.43;102332.53;5092649;28;20099;-70
2022/01/01 09:36:04;;;;;;;8.95;3.80;;;;;;;13.59;74.55;102334.28;5086718;28;20056;-68
2022/01/01 09:38:34;;;;;;;6.93;3.75;;;;;;;13.62;74.54;102334.22;5077572;28;20051;-70
2022/01/01 09:41:02;;;;;;;10.38;3.72;;;;;;;13.64;74.23;102339.50;5080890;28;20057;-71
2022/01/01 09:43:32;;;;;;;7.75;3.53;;;;;;;13.65;74.22;102328.88;5090299;28;20045;-70
2022/01/01 09:46:00;;;;;;;8.68;3.38;;;;;;;13.68;74.08;102327.06;5089646;28;20045;-66
2022/01/01 09:48:29;;;;;;;7.43;3.28;;;;;;;13.66;74.08;102320.03;5090915;28;20166;-66
2022/01/01 09:51:00;;;;;;;9.25;3.63;;;;;;;13.66;74.02;102317.38;5088032;28;20045;-71
2022/01/01 09:53:29;;;;;;;9.18;3.95;;;;;;;13.64;74.11;102313.00;5086054;28;20045;-68
2022/01/01 09:55:59;;;;;;;8.93;3.78;;;;;;;13.64;73.95;102308.59;5086450;28;20128;-67
2022/01/01 09:58:29;;;;;;;7.35;3.20;;;;;;;13.63;74.41;102317.44;5075774;28;20049;-70
2022/01/01 10:00:56;;;;;;;9.73;3.63;;;;;;;13.65;74.18;102312.97;5085449;28;21141;-70
2022/01/01 10:03:41;;;;;;;8.10;3.72;;;;;;;13.67;74.23;102318.25;5079303;28;20048;-69
2022/01/01 10:06:21;;;;;;;10.18;3.70;;;;;;;13.70;74.28;102312.00;5084081;28;20099;-69
2022/01/01 10:08:56;;;;;;;10.80;4.00;;;;;;;13.71;73.89;102308.44;5093433;28;20059;-70
2022/01/01 10:11:23;;;;;;;7.55;3.38;;;;;;;13.72;74.00;102303.13;5091356;28;20051;-71
2022/01/01 10:13:50;;;;;;;8.27;3.72;;;;;;;13.75;74.14;102302.19;5097432;28;20372;-70
2022/01/01 10:16:19;;;;;;;11.27;4.40;;;;;;;13.75;74.07;102296.88;5093879;28;20072;-70
2022/01/01 10:18:51;;;;;;;8.23;4.13;;;;;;;13.74;74.16;102297.78;5077352;28;20461;-67
2022/01/01 10:21:24;;;;;;;9.93;4.07;;;;;;;13.75;74.19;102292.44;5090133;28;20136;-70
2022/01/01 10:23:53;;;;;;;8.20;4.15;;;;;;;13.76;73.99;102299.50;5081152;28;20739;-69
2022/01/01 10:29:17;;;;;;;6.97;4.03;;;;;;;13.77;73.61;102295.94;5097928;28;20083;-72
2022/01/01 10:32:04;;;;;;;10.88;4.38;;;;;;;13.80;74.02;102287.94;5097126;28;20080;-71
2022/01/01 10:34:47;;;;;;;7.80;4.13;;;;;;;13.84;73.76;102280.78;5097640;28;20053;-72
2022/01/01 10:37:34;;;;;;;9.40;4.30;;;;;;;13.90;73.53;102267.41;5097284;28;20049;-71
2022/01/01 10:40:04;;;;;;;8.85;4.70;;;;;;;13.94;73.73;102265.53;5098101;28;20037;-68
2022/01/01 10:42:31;;;;;;;9.05;4.20;;;;;;;14.03;73.34;102249.47;5095765;28;20041;-71
2022/01/01 10:44:58;;;;;;;8.35;4.47;;;;;;;14.09;73.14;102251.09;5097685;28;20040;-71
2022/01/01 10:47:32;;;;;;;11.10;4.95;;;;;;;14.19;72.94;102251.75;5097434;28;20748;-71
2022/01/01 10:52:45;;;;;;;10.65;5.15;;;;;;;14.26;72.29;102251.59;5097458;28;20045;-71
2022/01/01 10:55:15;;;;;;;8.40;4.57;;;;;;;14.30;72.44;102247.06;5097634;28;20044;-71
2022/01/01 10:57:55;;;;;;;10.25;5.10;;;;;;;14.32;72.42;102237.31;5091905;28;20041;-71
2022/01/01 11:00:24;;;;;;;8.32;4.85;;;;;;;14.35;72.38;102236.34;5076013;28;20470;-71
2022/01/01 11:02:55;;;;;;;10.25;4.82;;;;;;;14.38;72.25;102237.16;5090452;28;20079;-70
2022/01/01 11:05:40;;;;;;;8.77;4.65;;;;;;;14.43;72.20;102243.22;5096025;28;20044;-72
2022/01/01 11:08:09;;;;;;;8.73;4.32;;;;;;;14.47;71.96;102245.78;5097357;28;20048;-71
2022/01/01 11:10:39;;;;;;;7.97;4.10;;;;;;;14.49;72.01;102247.53;5080949;28;20068;-71
2022/01/01 11:13:08;;;;;;;11.40;4.80;;;;;;;14.54;71.91;102236.78;5076976;28;20048;-71
2022/01/01 11:15:35;;;;;;;8.20;4.60;;;;;;;14.56;71.58;102235.84;5090990;28;20040;-70
2022/01/01 11:18:06;;;;;;;11.13;5.22;;;;;;;14.60;71.71;102229.53;5095771;28;20070;-72
2022/01/01 11:20:35;;;;;;;9.60;4.57;;;;;;;14.67;71.65;102234.72;5096914;28;20131;-71
2022/01/01 11:23:08;;;;;;;15.38;7.55;;;;;;;14.74;71.43;102233.66;5097367;28;20049;-71
2022/01/01 11:25:38;;;;;;;11.38;6.13;;;;;;;14.78;71.13;102232.69;5097490;28;20037;-71
2022/01/01 11:28:09;;;;;;;9.05;5.50;;;;;;;14.78;71.37;102222.06;5095943;28;20052;-72
2022/01/01 11:30:45;;;;;;;12.32;6.47;;;;;;;14.75;70.98;102206.19;5083783;28;20098;-71
2022/01/01 11:33:18;;;;;;;10.98;5.35;;;;;;;14.73;70.88;102210.66;5085700;28;20127;-71